sensor_id;sensor_type;location;lat;lon;timestamp;pressure;altitude;pressure_sealevel;temperature;humidity
42591;BME280;28218;53.342;-6.216;2023-06-14T00:00:04;101643.28;;;19.93;100.00
42591;BME280;28218;53.342;-6.216;2023-06-14T00:02:34;101635.66;;;19.90;100.00
42591;BME280;28218;53.342;-6.216;2023-06-14T00:05:03;101635.66;;;19.90;100.00
42591;BME280;28218;53.342;-6.216;2023-06-14T00:07:36;101639.38;;;19.89;100.00
42591;BME280;28218;53.342;-6.216;2023-06-14T00:10:10;101635.47;;;19.85;100.00
42591;BME280;28218;53.342;-6.216;2023-06-14T00:12:40;101644.72;;;19.89;100.00
42591;BME280;28218;53.342;-6.216;2023-06-14T00:15:09;101637.50;;;19.89;100.00
42591;BME280;28218;53.342;-6.216;2023-06-14T00:17:37;101641.44;;;19.87;100.00
42591;BME280;28218;53.342;-6.216;2023-06-14T00:20:07;101636.09;;;19.87;100.00
42591;BME280;28218;53.342;-6.216;2023-06-14T00:22:36;101630.94;;;19.85;100.00
42591;BME280;28218;53.342;-6.216;2023-06-14T00:25:06;101637.31;;;19.84;100.00
42591;BME280;28218;53.342;-6.216;2023-06-14T00:27:56;101637.31;;;19.84;100.00
42591;BME280;28218;53.342;-6.216;2023-06-14T00:30:25;101634.84;;;19.83;100.00
42591;BME280;28218;53.342;-6.216;2023-06-14T00:32:58;101633.41;;;19.80;100.00
42591;BME280;28218;53.342;-6.216;2023-06-14T00:35:26;101637.94;;;19.80;100.00
42591;BME280;28218;53.342;-6.216;2023-06-14T00:37:54;101636.09;;;19.80;100.00
42591;BME280;28218;53.342;-6.216;2023-06-14T00:40:23;101636.31;;;19.79;100.00
42591;BME280;28218;53.342;-6.216;2023-06-14T00:42:51;101640.22;;;19.76;100.00
42591;BME280;28218;53.342;-6.216;2023-06-14T00:45:21;101633.44;;;19.74;100.00
42591;BME280;28218;53.342;-6.216;2023-06-14T00:47:50;101628.06;;;19.74;100.00
42591;BME280;28218;53.342;-6.216;2023-06-14T00:50:23;101629.50;;;19.70;100.00
42591;BME280;28218;53.342;-6.216;2023-06-14T00:52:51;101624.38;;;19.68;100.00
42591;BME280;28218;53.342;-6.216;2023-06-14T00:55:19;101626.25;;;19.68;100.00
42591;BME280;28218;53.342;-6.216;2023-06-14T00:57:48;101622.94;;;19.65;100.00
42591;BME280;28218;53.342;-6.216;2023-06-14T01:00:17;101622.13;;;19.65;100.00
42591;BME280;28218;53.342;-6.216;2023-06-14T01:02:46;101628.72;;;19.62;100.00
42591;BME280;28218;53.342;-6.216;2023-06-14T01:05:17;101630.75;;;19.60;100.00
42591;BME280;28218;53.342;-6.216;2023-06-14T01:07:54;101627.44;;;19.58;100.00
42591;BME280;28218;53.342;-6.216;2023-06-14T01:10:33;101631.34;;;19.56;100.00
42591;BME280;28218;53.342;-6.216;2023-06-14T01:13:11;101630.72;;;19.54;100.00
42591;BME280;28218;53.342;-6.216;2023-06-14T01:15:42;101625.97;;;19.56;100.00
42591;BME280;28218;53.342;-6.216;2023-06-14T01:18:13;101631.34;;;19.56;100.00
42591;BME280;28218;53.342;-6.216;2023-06-14T01:20:46;101629.47;;;19.56;100.00
42591;BME280;28218;53.342;-6.216;2023-06-14T01:23:18;101636.88;;;19.54;100.00
42591;BME280;28218;53.342;-6.216;2023-06-14T01:25:48;101640.78;;;19.52;100.00
42591;BME280;28218;53.342;-6.216;2023-06-14T01:28:20;101640.19;;;19.50;100.00
42591;BME280;28218;53.342;-6.216;2023-06-14T01:30:51;101636.88;;;19.48;100.00
42591;BME280;28218;53.342;-6.216;2023-06-14T01:33:22;101634.41;;;19.46;100.00
42591;BME280;28218;53.342;-6.216;2023-06-14T01:35:53;101639.34;;;19.49;100.00
42591;BME280;28218;53.342;-6.216;2023-06-14T01:38:24;101641.00;;;19.50;100.00
42591;BME280;28218;53.342;-6.216;2023-06-14T01:40:54;101636.25;;;19.52;100.00
42591;BME280;28218;53.342;-6.216;2023-06-14T01:43:23;101644.72;;;19.49;100.00
42591;BME280;28218;53.342;-6.216;2023-06-14T01:45:53;101634.00;;;19.49;100.00
42591;BME280;28218;53.342;-6.216;2023-06-14T01:48:23;101640.19;;;19.50;100.00
42591;BME280;28218;53.342;-6.216;2023-06-14T01:50:52;101646.34;;;19.50;100.00
42591;BME280;28218;53.342;-6.216;2023-06-14T01:53:20;101645.31;;;19.51;100.00
42591;BME280;28218;53.342;-6.216;2023-06-14T01:55:50;101636.69;;;19.49;100.00
42591;BME280;28218;53.342;-6.216;2023-06-14T01:58:21;101637.28;;;19.51;100.00
42591;BME280;28218;53.342;-6.216;2023-06-14T02:00:51;101637.28;;;19.51;100.00
42591;BME280;28218;53.342;-6.216;2023-06-14T02:03:22;101631.94;;;19.51;100.00
42591;BME280;28218;53.342;-6.216;2023-06-14T02:05:50;101627.41;;;19.52;100.00
42591;BME280;28218;53.342;-6.216;2023-06-14T02:08:18;101636.25;;;19.52;100.00
42591;BME280;28218;53.342;-6.216;2023-06-14T02:10:47;101630.91;;;19.52;100.00
42591;BME280;28218;53.342;-6.216;2023-06-14T02:13:16;101639.97;;;19.51;100.00
42591;BME280;28218;53.342;-6.216;2023-06-14T02:15:45;101626.59;;;19.45;100.00
42591;BME280;28218;53.342;-6.216;2023-06-14T02:18:13;101624.13;;;19.43;100.00
42591;BME280;28218;53.342;-6.216;2023-06-14T02:20:43;101628.66;;;19.42;100.00
42591;BME280;28218;53.342;-6.216;2023-06-14T02:23:11;101627.81;;;19.42;100.00
42591;BME280;28218;53.342;-6.216;2023-06-14T02:25:39;101634.81;;;19.43;100.00
42591;BME280;28218;53.342;-6.216;2023-06-14T02:28:08;101632.13;;;19.43;100.00
42591;BME280;28218;53.342;-6.216;2023-06-14T02:30:38;101631.75;;;19.46;100.00
42591;BME280;28218;53.342;-6.216;2023-06-14T02:33:07;101625.78;;;19.44;100.00
42591;BME280;28218;53.342;-6.216;2023-06-14T02:35:39;101628.25;;;19.46;100.00
42591;BME280;28218;53.342;-6.216;2023-06-14T02:38:08;101633.38;;;19.47;100.00
42591;BME280;28218;53.342;-6.216;2023-06-14T02:40:36;101624.34;;;19.48;100.00
42591;BME280;28218;53.342;-6.216;2023-06-14T02:43:04;101624.97;;;19.50;100.00
42591;BME280;28218;53.342;-6.216;2023-06-14T02:45:32;101634.00;;;19.49;100.00
42591;BME280;28218;53.342;-6.216;2023-06-14T02:48:03;101640.59;;;19.53;100.00
42591;BME280;28218;53.342;-6.216;2023-06-14T02:50:32;101648.41;;;19.55;100.00
42591;BME280;28218;53.342;-6.216;2023-06-14T02:53:00;101650.88;;;19.56;100.00
42591;BME280;28218;53.342;-6.216;2023-06-14T02:55:29;101652.53;;;19.57;100.00
42591;BME280;28218;53.342;-6.216;2023-06-14T02:57:58;101658.47;;;19.59;100.00
42591;BME280;28218;53.342;-6.216;2023-06-14T03:00:27;101660.34;;;19.59;100.00
42591;BME280;28218;53.342;-6.216;2023-06-14T03:02:56;101661.16;;;19.59;100.00
42591;BME280;28218;53.342;-6.216;2023-06-14T03:05:30;101662.00;;;19.60;100.00
42591;BME280;28218;53.342;-6.216;2023-06-14T03:07:59;101672.69;;;19.60;100.00
42591;BME280;28218;53.342;-6.216;2023-06-14T03:10:28;101675.16;;;19.61;100.00
42591;BME280;28218;53.342;-6.216;2023-06-14T03:12:56;101683.81;;;19.63;100.00
42591;BME280;28218;53.342;-6.216;2023-06-14T03:15:24;101703.34;;;19.71;100.00
42591;BME280;28218;53.342;-6.216;2023-06-14T03:17:54;101701.50;;;19.78;100.00
42591;BME280;28218;53.342;-6.216;2023-06-14T03:20:22;101696.78;;;19.80;100.00
42591;BME280;28218;53.342;-6.216;2023-06-14T03:22:52;101708.91;;;19.82;100.00
42591;BME280;28218;53.342;-6.216;2023-06-14T03:25:21;101716.34;;;19.87;100.00
42591;BME280;28218;53.342;-6.216;2023-06-14T03:27:49;101712.63;;;19.88;100.00
42591;BME280;28218;53.342;-6.216;2023-06-14T03:30:18;101712.84;;;19.86;100.00
42591;BME280;28218;53.342;-6.216;2023-06-14T03:32:46;101703.34;;;19.84;100.00
42591;BME280;28218;53.342;-6.216;2023-06-14T03:35:14;101698.44;;;19.81;100.00
42591;BME280;28218;53.342;-6.216;2023-06-14T03:37:44;101691.84;;;19.77;100.00
42591;BME280;28218;53.342;-6.216;2023-06-14T03:40:15;101691.44;;;19.73;100.00
42591;BME280;28218;53.342;-6.216;2023-06-14T03:42:44;101696.56;;;19.68;100.00
42591;BME280;28218;53.342;-6.216;2023-06-14T03:45:12;101690.38;;;19.61;100.00
42591;BME280;28218;53.342;-6.216;2023-06-14T03:47:41;101694.44;;;19.57;100.00
42591;BME280;28218;53.342;-6.216;2023-06-14T03:50:10;101700.22;;;19.54;100.00
42591;BME280;28218;53.342;-6.216;2023-06-14T03:52:39;101691.38;;;19.53;100.00
42591;BME280;28218;53.342;-6.216;2023-06-14T03:55:09;101701.44;;;19.51;100.00
42591;BME280;28218;53.342;-6.216;2023-06-14T03:57:44;101706.38;;;19.48;100.00
42591;BME280;28218;53.342;-6.216;2023-06-14T04:00:13;101719.56;;;19.49;100.00
42591;BME280;28218;53.342;-6.216;2023-06-14T04:02:42;101715.00;;;19.43;100.00
42591;BME280;28218;53.342;-6.216;2023-06-14T04:05:11;101717.06;;;19.41;100.00
42591;BME280;28218;53.342;-6.216;2023-06-14T04:07:40;101714.16;;;19.36;100.00
42591;BME280;28218;53.342;-6.216;2023-06-14T04:10:12;101712.53;;;19.35;100.00
42591;BME280;28218;53.342;-6.216;2023-06-14T04:12:41;101707.56;;;19.32;100.00
42591;BME280;28218;53.342;-6.216;2023-06-14T04:15:11;101707.16;;;19.28;100.00
42591;BME280;28218;53.342;-6.216;2023-06-14T04:17:48;101709.00;;;19.28;100.00
42591;BME280;28218;53.342;-6.216;2023-06-14T04:20:16;101706.31;;;19.28;100.00
42591;BME280;28218;53.342;-6.216;2023-06-14T04:22:45;101713.31;;;19.29;100.00
42591;BME280;28218;53.342;-6.216;2023-06-14T04:25:13;101717.66;;;19.30;100.00
42591;BME280;28218;53.342;-6.216;2023-06-14T04:27:49;101723.00;;;19.30;100.00
42591;BME280;28218;53.342;-6.216;2023-06-14T04:30:18;101717.66;;;19.30;100.00
42591;BME280;28218;53.342;-6.216;2023-06-14T04:32:48;101721.75;;;19.32;100.00
42591;BME280;28218;53.342;-6.216;2023-06-14T04:35:16;101718.66;;;19.29;100.00
42591;BME280;28218;53.342;-6.216;2023-06-14T04:37:45;101724.00;;;19.29;100.00
42591;BME280;28218;53.342;-6.216;2023-06-14T04:40:13;101729.16;;;19.30;100.00
42591;BME280;28218;53.342;-6.216;2023-06-14T04:42:41;101735.53;;;19.29;100.00
42591;BME280;28218;53.342;-6.216;2023-06-14T04:45:11;101737.19;;;19.30;100.00
42591;BME280;28218;53.342;-6.216;2023-06-14T04:47:44;101735.75;;;19.34;100.00
42591;BME280;28218;53.342;-6.216;2023-06-14T04:50:13;101734.72;;;19.42;100.00
42591;BME280;28218;53.342;-6.216;2023-06-14T04:52:41;101741.97;;;19.55;100.00
42591;BME280;28218;53.342;-6.216;2023-06-14T04:55:09;101755.38;;;19.61;100.00
42591;BME280;28218;53.342;-6.216;2023-06-14T04:57:38;101748.78;;;19.57;100.00
42591;BME280;28218;53.342;-6.216;2023-06-14T05:00:09;101765.63;;;19.58;100.00
42591;BME280;28218;53.342;-6.216;2023-06-14T05:02:39;101765.06;;;19.62;100.00
42591;BME280;28218;53.342;-6.216;2023-06-14T05:05:09;101778.78;;;19.59;100.00
42591;BME280;28218;53.342;-6.216;2023-06-14T05:07:38;101771.59;;;19.53;100.00
42591;BME280;28218;53.342;-6.216;2023-06-14T05:10:08;101775.25;;;19.52;100.00
42591;BME280;28218;53.342;-6.216;2023-06-14T05:12:37;101773.47;;;19.66;100.00
42591;BME280;28218;53.342;-6.216;2023-06-14T05:15:06;101768.56;;;19.89;100.00
42591;BME280;28218;53.342;-6.216;2023-06-14T05:17:35;101771.69;;;20.20;100.00
42591;BME280;28218;53.342;-6.216;2023-06-14T05:20:05;101773.13;;;20.42;100.00
42591;BME280;28218;53.342;-6.216;2023-06-14T05:22:35;101774.09;;;20.74;100.00
42591;BME280;28218;53.342;-6.216;2023-06-14T05:25:04;101785.59;;;20.95;100.00
42591;BME280;28218;53.342;-6.216;2023-06-14T05:27:32;101779.53;;;21.19;100.00
42591;BME280;28218;53.342;-6.216;2023-06-14T05:30:03;101780.50;;;21.38;100.00
42591;BME280;28218;53.342;-6.216;2023-06-14T05:32:31;101782.31;;;21.44;100.00
42591;BME280;28218;53.342;-6.216;2023-06-14T05:35:01;101789.44;;;21.63;100.00
42591;BME280;28218;53.342;-6.216;2023-06-14T05:37:29;101790.41;;;21.76;100.00
42591;BME280;28218;53.342;-6.216;2023-06-14T05:39:59;101799.75;;;21.98;100.00
42591;BME280;28218;53.342;-6.216;2023-06-14T05:42:27;101789.31;;;22.15;100.00
42591;BME280;28218;53.342;-6.216;2023-06-14T05:44:55;101792.88;;;22.34;100.00
42591;BME280;28218;53.342;-6.216;2023-06-14T05:47:24;101795.44;;;22.47;100.00
42591;BME280;28218;53.342;-6.216;2023-06-14T05:49:52;101802.03;;;22.51;100.00
42591;BME280;28218;53.342;-6.216;2023-06-14T05:52:21;101797.97;;;22.42;100.00
42591;BME280;28218;53.342;-6.216;2023-06-14T05:54:49;101792.25;;;22.57;100.00
42591;BME280;28218;53.342;-6.216;2023-06-14T05:57:19;101795.78;;;22.76;100.00
42591;BME280;28218;53.342;-6.216;2023-06-14T05:59:47;101801.81;;;22.96;100.00
42591;BME280;28218;53.342;-6.216;2023-06-14T06:02:15;101802.97;;;23.18;100.00
42591;BME280;28218;53.342;-6.216;2023-06-14T06:04:43;101809.31;;;23.24;100.00
42591;BME280;28218;53.342;-6.216;2023-06-14T06:07:12;101808.78;;;23.34;100.00
42591;BME280;28218;53.342;-6.216;2023-06-14T06:09:40;101809.97;;;23.38;100.00
42591;BME280;28218;53.342;-6.216;2023-06-14T06:12:08;101814.31;;;23.39;100.00
42591;BME280;28218;53.342;-6.216;2023-06-14T06:14:38;101819.22;;;23.42;100.00
42591;BME280;28218;53.342;-6.216;2023-06-14T06:17:06;101815.28;;;23.44;100.00
42591;BME280;28218;53.342;-6.216;2023-06-14T06:19:35;101812.72;;;23.50;100.00
42591;BME280;28218;53.342;-6.216;2023-06-14T06:22:03;101817.91;;;23.63;100.00
42591;BME280;28218;53.342;-6.216;2023-06-14T06:24:33;101813.28;;;23.70;100.00
42591;BME280;28218;53.342;-6.216;2023-06-14T06:27:01;101818.84;;;23.87;100.00
42591;BME280;28218;53.342;-6.216;2023-06-14T06:29:30;101818.16;;;24.03;100.00
42591;BME280;28218;53.342;-6.216;2023-06-14T06:31:59;101817.97;;;24.16;100.00
42591;BME280;28218;53.342;-6.216;2023-06-14T06:34:28;101832.84;;;24.19;100.00
42591;BME280;28218;53.342;-6.216;2023-06-14T06:36:56;101836.31;;;24.38;100.00
42591;BME280;28218;53.342;-6.216;2023-06-14T06:39:24;101838.28;;;24.42;100.00
42591;BME280;28218;53.342;-6.216;2023-06-14T06:41:53;101836.53;;;24.48;100.00
42591;BME280;28218;53.342;-6.216;2023-06-14T06:44:21;101837.47;;;24.65;100.00
42591;BME280;28218;53.342;-6.216;2023-06-14T06:46:50;101839.69;;;24.68;100.00
42591;BME280;28218;53.342;-6.216;2023-06-14T06:49:19;101845.31;;;24.79;100.00
42591;BME280;28218;53.342;-6.216;2023-06-14T06:51:59;101840.38;;;24.87;100.00
42591;BME280;28218;53.342;-6.216;2023-06-14T06:54:29;101847.06;;;24.85;100.00
42591;BME280;28218;53.342;-6.216;2023-06-14T06:56:58;101846.81;;;24.98;100.00
42591;BME280;28218;53.342;-6.216;2023-06-14T06:59:26;101848.09;;;25.07;100.00
42591;BME280;28218;53.342;-6.216;2023-06-14T07:01:54;101843.41;;;25.14;100.00
42591;BME280;28218;53.342;-6.216;2023-06-14T07:04:24;101847.63;;;25.22;100.00
42591;BME280;28218;53.342;-6.216;2023-06-14T07:06:52;101849.47;;;25.21;100.00
42591;BME280;28218;53.342;-6.216;2023-06-14T07:09:21;101848.56;;;25.16;100.00
42591;BME280;28218;53.342;-6.216;2023-06-14T07:11:49;101844.69;;;25.23;100.00
42591;BME280;28218;53.342;-6.216;2023-06-14T07:14:18;101844.94;;;25.22;100.00
42591;BME280;28218;53.342;-6.216;2023-06-14T07:16:50;101850.91;;;25.12;100.00
42591;BME280;28218;53.342;-6.216;2023-06-14T07:19:19;101848.81;;;25.14;100.00
42591;BME280;28218;53.342;-6.216;2023-06-14T07:21:49;101849.38;;;25.05;100.00
42591;BME280;28218;53.342;-6.216;2023-06-14T07:24:17;101859.59;;;24.91;100.00
42591;BME280;28218;53.342;-6.216;2023-06-14T07:26:47;101858.69;;;24.85;100.00
42591;BME280;28218;53.342;-6.216;2023-06-14T07:29:16;101864.53;;;24.82;100.00
42591;BME280;28218;53.342;-6.216;2023-06-14T07:31:44;101865.00;;;24.67;100.00
42591;BME280;28218;53.342;-6.216;2023-06-14T07:34:12;101875.19;;;24.42;100.00
42591;BME280;28218;53.342;-6.216;2023-06-14T07:36:41;101873.38;;;24.24;100.00
42591;BME280;28218;53.342;-6.216;2023-06-14T07:39:12;101882.81;;;24.15;100.00
42591;BME280;28218;53.342;-6.216;2023-06-14T07:41:41;101878.44;;;23.90;100.00
42591;BME280;28218;53.342;-6.216;2023-06-14T07:44:09;101881.06;;;23.79;100.00
42591;BME280;28218;53.342;-6.216;2023-06-14T07:46:39;101889.94;;;23.61;100.00
42591;BME280;28218;53.342;-6.216;2023-06-14T07:49:07;101881.16;;;23.35;100.00
42591;BME280;28218;53.342;-6.216;2023-06-14T07:51:35;101885.72;;;23.16;100.00
42591;BME280;28218;53.342;-6.216;2023-06-14T07:54:04;101892.28;;;23.02;100.00
42591;BME280;28218;53.342;-6.216;2023-06-14T07:56:35;101888.69;;;22.90;100.00
42591;BME280;28218;53.342;-6.216;2023-06-14T07:59:03;101891.25;;;22.78;100.00
42591;BME280;28218;53.342;-6.216;2023-06-14T08:01:32;101885.72;;;22.73;100.00
42591;BME280;28218;53.342;-6.216;2023-06-14T08:04:01;101892.13;;;22.47;100.00
42591;BME280;28218;53.342;-6.216;2023-06-14T08:06:29;101898.22;;;22.36;100.00
42591;BME280;28218;53.342;-6.216;2023-06-14T08:08:58;101904.91;;;22.20;100.00
42591;BME280;28218;53.342;-6.216;2023-06-14T08:11:27;101903.31;;;22.12;100.00
42591;BME280;28218;53.342;-6.216;2023-06-14T08:13:57;101901.50;;;22.00;100.00
42591;BME280;28218;53.342;-6.216;2023-06-14T08:16:25;101900.50;;;21.94;100.00
42591;BME280;28218;53.342;-6.216;2023-06-14T08:18:55;101900.94;;;21.91;100.00
42591;BME280;28218;53.342;-6.216;2023-06-14T08:21:23;101907.16;;;21.85;100.00
42591;BME280;28218;53.342;-6.216;2023-06-14T08:23:57;101914.22;;;21.73;100.00
42591;BME280;28218;53.342;-6.216;2023-06-14T08:26:26;101924.53;;;21.76;100.00
42591;BME280;28218;53.342;-6.216;2023-06-14T08:28:57;101924.94;;;21.73;100.00
42591;BME280;28218;53.342;-6.216;2023-06-14T08:31:26;101920.22;;;21.68;100.00
42591;BME280;28218;53.342;-6.216;2023-06-14T08:33:54;101926.22;;;21.70;100.00
42591;BME280;28218;53.342;-6.216;2023-06-14T08:36:22;101930.13;;;21.74;100.00
42591;BME280;28218;53.342;-6.216;2023-06-14T08:38:51;101937.75;;;21.71;100.00
42591;BME280;28218;53.342;-6.216;2023-06-14T08:41:21;101943.59;;;21.54;100.00
42591;BME280;28218;53.342;-6.216;2023-06-14T08:43:51;101932.03;;;21.60;100.00
42591;BME280;28218;53.342;-6.216;2023-06-14T08:46:21;101935.31;;;21.62;100.00
42591;BME280;28218;53.342;-6.216;2023-06-14T08:48:55;101936.16;;;21.56;100.00
42591;BME280;28218;53.342;-6.216;2023-06-14T08:51:25;101945.06;;;21.50;100.00
42591;BME280;28218;53.342;-6.216;2023-06-14T08:54:01;101943.22;;;21.44;100.00
42591;BME280;28218;53.342;-6.216;2023-06-14T08:56:31;101940.34;;;21.46;100.00
42591;BME280;28218;53.342;-6.216;2023-06-14T08:59:00;101937.63;;;21.52;100.00
42591;BME280;28218;53.342;-6.216;2023-06-14T09:01:33;101948.56;;;21.44;100.00
42591;BME280;28218;53.342;-6.216;2023-06-14T09:04:02;101953.72;;;21.52;100.00
42591;BME280;28218;53.342;-6.216;2023-06-14T09:06:32;101958.66;;;21.55;100.00
42591;BME280;28218;53.342;-6.216;2023-06-14T09:09:01;101960.50;;;21.55;100.00
42591;BME280;28218;53.342;-6.216;2023-06-14T09:11:31;101961.16;;;21.50;100.00
42591;BME280;28218;53.342;-6.216;2023-06-14T09:14:00;101954.38;;;21.41;100.00
42591;BME280;28218;53.342;-6.216;2023-06-14T09:16:28;101951.88;;;21.39;100.00
42591;BME280;28218;53.342;-6.216;2023-06-14T09:18:59;101946.50;;;21.39;100.00
42591;BME280;28218;53.342;-6.216;2023-06-14T09:21:27;101956.81;;;21.49;100.00
42591;BME280;28218;53.342;-6.216;2023-06-14T09:23:59;101957.63;;;21.56;100.00
42591;BME280;28218;53.342;-6.216;2023-06-14T09:26:28;101959.25;;;21.57;100.00
42591;BME280;28218;53.342;-6.216;2023-06-14T09:28:56;101954.72;;;21.58;100.00
42591;BME280;28218;53.342;-6.216;2023-06-14T09:31:25;101956.94;;;21.67;100.00
42591;BME280;28218;53.342;-6.216;2023-06-14T09:34:02;101953.38;;;21.87;100.00
42591;BME280;28218;53.342;-6.216;2023-06-14T09:36:31;101957.00;;;22.06;100.00
42591;BME280;28218;53.342;-6.216;2023-06-14T09:39:03;101966.94;;;22.12;100.00
42591;BME280;28218;53.342;-6.216;2023-06-14T09:41:33;101972.00;;;22.27;100.00
42591;BME280;28218;53.342;-6.216;2023-06-14T09:44:03;101971.38;;;22.25;100.00
42591;BME280;28218;53.342;-6.216;2023-06-14T09:46:38;101959.69;;;22.06;100.00
42591;BME280;28218;53.342;-6.216;2023-06-14T09:49:08;101972.31;;;21.99;100.00
42591;BME280;28218;53.342;-6.216;2023-06-14T09:51:42;101969.47;;;21.87;100.00
42591;BME280;28218;53.342;-6.216;2023-06-14T09:54:15;101973.66;;;21.76;100.00
42591;BME280;28218;53.342;-6.216;2023-06-14T09:56:45;101973.69;;;21.69;100.00
42591;BME280;28218;53.342;-6.216;2023-06-14T09:59:17;101964.41;;;21.65;100.00
42591;BME280;28218;53.342;-6.216;2023-06-14T10:01:48;101974.13;;;21.60;100.00
42591;BME280;28218;53.342;-6.216;2023-06-14T10:04:21;101974.75;;;21.55;100.00
42591;BME280;28218;53.342;-6.216;2023-06-14T10:06:50;101973.09;;;21.48;100.00
42591;BME280;28218;53.342;-6.216;2023-06-14T10:09:20;101971.03;;;21.56;100.00
42591;BME280;28218;53.342;-6.216;2023-06-14T10:11:49;101966.06;;;21.53;100.00
42591;BME280;28218;53.342;-6.216;2023-06-14T10:14:18;101975.56;;;21.49;100.00
42591;BME280;28218;53.342;-6.216;2023-06-14T10:16:54;101963.00;;;21.43;100.00
42591;BME280;28218;53.342;-6.216;2023-06-14T10:19:30;101963.44;;;21.47;100.00
42591;BME280;28218;53.342;-6.216;2023-06-14T10:22:06;101965.66;;;21.50;100.00
42591;BME280;28218;53.342;-6.216;2023-06-14T10:24:40;101974.75;;;21.55;100.00
42591;BME280;28218;53.342;-6.216;2023-06-14T10:27:09;101979.06;;;21.56;100.00
42591;BME280;28218;53.342;-6.216;2023-06-14T10:30:02;101978.44;;;21.54;100.00
42591;BME280;28218;53.342;-6.216;2023-06-14T10:32:31;101982.34;;;21.65;100.00
42591;BME280;28218;53.342;-6.216;2023-06-14T10:35:05;101988.28;;;21.74;100.00
42591;BME280;28218;53.342;-6.216;2023-06-14T10:37:34;101972.97;;;21.87;100.00
42591;BME280;28218;53.342;-6.216;2023-06-14T10:40:02;101976.19;;;22.09;100.00
42591;BME280;28218;53.342;-6.216;2023-06-14T10:42:32;101969.50;;;22.32;100.00
42591;BME280;28218;53.342;-6.216;2023-06-14T10:45:01;101960.72;;;22.43;100.00
42591;BME280;28218;53.342;-6.216;2023-06-14T10:47:30;101958.22;;;22.48;100.00
42591;BME280;28218;53.342;-6.216;2023-06-14T10:50:05;101958.94;;;22.62;100.00
42591;BME280;28218;53.342;-6.216;2023-06-14T10:52:38;101960.72;;;22.75;100.00
42591;BME280;28218;53.342;-6.216;2023-06-14T10:55:10;101963.16;;;22.83;100.00
42591;BME280;28218;53.342;-6.216;2023-06-14T10:57:41;101959.19;;;22.85;100.00
42591;BME280;28218;53.342;-6.216;2023-06-14T11:00:19;101963.00;;;23.03;100.00
42591;BME280;28218;53.342;-6.216;2023-06-14T11:05:49;101958.94;;;22.93;100.00
42591;BME280;28218;53.342;-6.216;2023-06-14T11:08:27;101951.34;;;22.84;100.00
42591;BME280;28218;53.342;-6.216;2023-06-14T11:11:05;101961.94;;;22.79;100.00
42591;BME280;28218;53.342;-6.216;2023-06-14T11:13:34;101958.91;;;22.68;100.00
42591;BME280;28218;53.342;-6.216;2023-06-14T11:16:10;101953.97;;;22.65;100.00
42591;BME280;28218;53.342;-6.216;2023-06-14T11:18:39;101956.56;;;22.79;100.00
42591;BME280;28218;53.342;-6.216;2023-06-14T11:21:08;101945.72;;;22.92;100.00
42591;BME280;28218;53.342;-6.216;2023-06-14T11:23:37;101956.81;;;23.02;100.00
42591;BME280;28218;53.342;-6.216;2023-06-14T11:26:05;101956.81;;;23.02;100.00
42591;BME280;28218;53.342;-6.216;2023-06-14T11:28:37;101958.72;;;22.95;100.00
42591;BME280;28218;53.342;-6.216;2023-06-14T11:31:07;101955.25;;;22.88;100.00
42591;BME280;28218;53.342;-6.216;2023-06-14T11:33:35;101957.78;;;22.83;100.00
42591;BME280;28218;53.342;-6.216;2023-06-14T11:36:06;101950.91;;;22.87;100.00
42591;BME280;28218;53.342;-6.216;2023-06-14T11:38:37;101962.53;;;22.81;100.00
42591;BME280;28218;53.342;-6.216;2023-06-14T11:41:05;101955.13;;;22.76;100.00
42591;BME280;28218;53.342;-6.216;2023-06-14T11:43:33;101959.00;;;22.80;100.00
42591;BME280;28218;53.342;-6.216;2023-06-14T11:46:02;101949.41;;;22.66;100.00
42591;BME280;28218;53.342;-6.216;2023-06-14T11:48:38;101950.50;;;22.58;100.00
42591;BME280;28218;53.342;-6.216;2023-06-14T11:51:06;101953.88;;;22.54;100.00
42591;BME280;28218;53.342;-6.216;2023-06-14T11:53:36;101949.47;;;22.59;100.00
42591;BME280;28218;53.342;-6.216;2023-06-14T11:56:05;101946.13;;;22.64;100.00
42591;BME280;28218;53.342;-6.216;2023-06-14T11:58:33;101940.88;;;22.51;100.00
42591;BME280;28218;53.342;-6.216;2023-06-14T12:01:03;101943.47;;;22.64;100.00
42591;BME280;28218;53.342;-6.216;2023-06-14T12:03:31;101934.91;;;22.74;100.00
42591;BME280;28218;53.342;-6.216;2023-06-14T12:06:04;101947.59;;;22.91;100.00
42591;BME280;28218;53.342;-6.216;2023-06-14T12:08:35;101947.53;;;22.98;100.00
42591;BME280;28218;53.342;-6.216;2023-06-14T12:11:10;101948.13;;;23.00;100.00
42591;BME280;28218;53.342;-6.216;2023-06-14T12:13:39;101948.44;;;22.85;100.00
42591;BME280;28218;53.342;-6.216;2023-06-14T12:16:07;101956.56;;;22.79;100.00
42591;BME280;28218;53.342;-6.216;2023-06-14T12:18:37;101940.38;;;22.60;100.00
42591;BME280;28218;53.342;-6.216;2023-06-14T12:21:06;101942.00;;;22.61;100.00
42591;BME280;28218;53.342;-6.216;2023-06-14T12:23:45;101940.13;;;22.68;100.00
42591;BME280;28218;53.342;-6.216;2023-06-14T12:26:17;101931.97;;;22.75;100.00
42591;BME280;28218;53.342;-6.216;2023-06-14T12:28:47;101942.31;;;22.78;100.00
42591;BME280;28218;53.342;-6.216;2023-06-14T12:31:16;101938.03;;;22.95;100.00
42591;BME280;28218;53.342;-6.216;2023-06-14T12:33:46;101936.78;;;22.98;100.00
42591;BME280;28218;53.342;-6.216;2023-06-14T12:36:16;101942.22;;;23.10;100.00
42591;BME280;28218;53.342;-6.216;2023-06-14T12:38:44;101931.06;;;23.13;100.00
42591;BME280;28218;53.342;-6.216;2023-06-14T12:41:13;101942.50;;;23.27;100.00
42591;BME280;28218;53.342;-6.216;2023-06-14T12:43:43;101937.72;;;23.47;100.00
42591;BME280;28218;53.342;-6.216;2023-06-14T12:46:11;101937.34;;;23.43;100.00